createdAt,value
2018-10-11T00:02:06.316Z,31.80
2018-10-11T00:04:34.867Z,33.80
2018-10-11T00:07:03.410Z,31.37
2018-10-11T00:09:31.947Z,35.37
2018-10-11T00:12:00.501Z,34.60
2018-10-11T00:14:29.033Z,34.73
2018-10-11T00:16:57.537Z,35.00
2018-10-11T00:19:26.094Z,31.40
2018-10-11T00:21:54.609Z,33.73
2018-10-11T00:24:23.134Z,33.90
2018-10-11T00:26:51.653Z,36.70
2018-10-11T00:29:20.170Z,32.47
2018-10-11T00:31:48.699Z,32.93
2018-10-11T00:34:17.254Z,35.23
2018-10-11T00:36:45.767Z,35.43
2018-10-11T00:39:14.302Z,35.40
2018-10-11T00:41:42.809Z,35.60
2018-10-11T00:44:15.011Z,37.70
2018-10-11T00:46:44.787Z,37.20
2018-10-11T00:49:13.323Z,35.10
2018-10-11T00:51:41.868Z,37.43
2018-10-11T00:54:10.625Z,40.33
2018-10-11T00:56:39.533Z,35.23
2018-10-11T00:59:08.677Z,35.43
2018-10-11T01:01:37.185Z,33.70
2018-10-11T01:04:05.726Z,33.57
2018-10-11T01:06:34.255Z,39.33
2018-10-11T01:09:02.812Z,34.50
2018-10-11T01:11:31.320Z,35.77
2018-10-11T01:13:59.845Z,38.60
2018-10-11T01:16:28.363Z,36.13
2018-10-11T01:18:56.902Z,38.33
2018-10-11T01:21:25.397Z,39.47
2018-10-11T01:23:53.977Z,41.30
2018-10-11T01:26:22.465Z,36.27
2018-10-11T01:28:50.995Z,39.37
2018-10-11T01:31:20.415Z,40.30
2018-10-11T01:33:50.222Z,36.27
2018-10-11T01:36:18.789Z,35.90
2018-10-11T01:38:49.291Z,37.20
2018-10-11T01:41:17.736Z,40.47
2018-10-11T01:43:46.308Z,42.30
2018-10-11T01:46:14.799Z,32.93
2018-10-11T01:48:43.346Z,38.50
2018-10-11T01:51:11.894Z,38.37
2018-10-11T01:53:40.418Z,43.73
2018-10-11T01:56:09.394Z,40.50
2018-10-11T01:58:37.941Z,36.87
2018-10-11T02:01:06.712Z,36.23
2018-10-11T02:03:35.214Z,43.30
2018-10-11T02:06:03.741Z,38.30
2018-10-11T02:08:32.234Z,37.60
2018-10-11T02:11:00.766Z,33.10
2018-10-11T02:13:29.270Z,37.77
2018-10-11T02:15:57.794Z,37.50
2018-10-11T02:18:26.286Z,37.73
2018-10-11T02:20:54.814Z,41.33
2018-10-11T02:23:23.317Z,35.17
2018-10-11T02:25:51.846Z,42.30
2018-10-11T02:28:20.488Z,40.90
2018-10-11T02:30:49.031Z,40.33
2018-10-11T02:33:17.530Z,39.47
2018-10-11T02:35:46.098Z,37.53
2018-10-11T02:38:14.599Z,44.03
2018-10-11T02:40:43.136Z,39.83
2018-10-11T02:43:11.630Z,39.60
2018-10-11T02:45:40.285Z,40.90
2018-10-11T02:48:09.131Z,42.27
2018-10-11T02:50:37.652Z,41.83
2018-10-11T02:53:06.230Z,42.80
2018-10-11T02:55:34.823Z,38.47
2018-10-11T02:59:16.484Z,38.47
2018-10-11T03:01:45.048Z,36.50
2018-10-11T03:04:13.593Z,39.23
2018-10-11T03:06:42.250Z,40.33
2018-10-11T03:09:10.781Z,41.50
2018-10-11T03:11:39.456Z,40.77
2018-10-11T03:14:07.973Z,42.30
2018-10-11T03:16:36.517Z,36.47
2018-10-11T03:19:05.053Z,38.37
2018-10-11T03:21:33.573Z,37.63
2018-10-11T03:24:02.074Z,40.50
2018-10-11T03:26:30.597Z,41.37
2018-10-11T03:28:59.114Z,40.17
2018-10-11T03:31:27.652Z,39.00
2018-10-11T03:33:56.183Z,40.43
2018-10-11T03:36:24.726Z,38.30
2018-10-11T03:38:53.232Z,42.40
2018-10-11T03:41:21.770Z,40.60
2018-10-11T03:43:50.319Z,45.40
2018-10-11T03:46:18.901Z,43.20
2018-10-11T03:48:47.385Z,38.87
2018-10-11T03:51:15.903Z,41.30
2018-10-11T03:53:44.409Z,38.87
2018-10-11T03:56:12.932Z,40.90
2018-10-11T03:58:41.470Z,40.50
2018-10-11T04:01:10.020Z,40.27
2018-10-11T04:03:38.573Z,37.80
2018-10-11T04:06:07.152Z,48.70
2018-10-11T04:08:35.659Z,42.97
2018-10-11T04:11:04.192Z,40.97
2018-10-11T04:13:32.696Z,41.43
2018-10-11T04:16:01.210Z,40.30
2018-10-11T04:18:29.699Z,44.70
2018-10-11T04:20:58.233Z,53.03
2018-10-11T04:23:28.955Z,42.30
2018-10-11T04:25:58.224Z,41.20
2018-10-11T04:28:27.711Z,39.43
2018-10-11T04:30:57.054Z,39.20
2018-10-11T04:33:25.933Z,37.53
2018-10-11T04:35:54.547Z,42.00
2018-10-11T04:38:23.056Z,46.03
2018-10-11T04:40:51.605Z,46.27
2018-10-11T04:43:20.185Z,38.40
2018-10-11T04:45:48.689Z,46.87
2018-10-11T04:48:17.213Z,39.50
2018-10-11T04:50:45.754Z,38.73
2018-10-11T04:53:15.155Z,40.23
2018-10-11T04:55:44.720Z,42.60
2018-10-11T04:58:13.245Z,43.50
2018-10-11T05:00:42.015Z,41.07
2018-10-11T05:03:12.037Z,41.77
2018-10-11T05:05:41.047Z,44.50
2018-10-11T05:08:09.589Z,41.43
2018-10-11T05:10:38.090Z,39.67
2018-10-11T05:13:06.736Z,40.57
2018-10-11T05:15:36.703Z,40.30
2018-10-11T05:18:05.832Z,39.83
2018-10-11T05:20:34.355Z,46.97
2018-10-11T05:23:02.898Z,45.33
2018-10-11T05:25:31.424Z,40.70
2018-10-11T05:27:59.994Z,40.17
2018-10-11T05:30:28.533Z,40.57
2018-10-11T05:32:57.447Z,38.33
2018-10-11T05:35:25.948Z,43.77
2018-10-11T05:37:54.500Z,36.37
2018-10-11T05:40:23.035Z,40.40
2018-10-11T05:42:51.599Z,49.23
2018-10-11T05:45:22.933Z,43.03
2018-10-11T05:47:51.494Z,42.03
2018-10-11T05:50:20.165Z,39.13
2018-10-11T05:52:48.901Z,36.90
2018-10-11T05:55:17.457Z,42.50
2018-10-11T05:57:46.037Z,42.73
2018-10-11T06:00:14.539Z,45.00
2018-10-11T06:02:56.027Z,41.63
2018-10-11T06:05:24.549Z,47.80
2018-10-11T06:07:53.170Z,45.83
2018-10-11T06:10:21.725Z,40.90
2018-10-11T06:12:50.277Z,38.87
2018-10-11T06:15:18.837Z,34.43
2018-10-11T06:17:47.395Z,50.00
2018-10-11T06:20:15.938Z,42.00
2018-10-11T06:22:44.544Z,39.30
2018-10-11T06:25:13.095Z,40.80
2018-10-11T06:27:42.445Z,37.50
2018-10-11T06:30:11.605Z,38.80
2018-10-11T06:32:40.171Z,42.10
2018-10-11T06:35:08.716Z,39.67
2018-10-11T06:37:37.282Z,36.37
2018-10-11T06:40:05.834Z,35.73
2018-10-11T06:42:34.782Z,43.23
2018-10-11T06:45:03.985Z,35.83
2018-10-11T06:47:33.030Z,35.93
2018-10-11T06:50:03.076Z,37.67
2018-10-11T06:52:31.589Z,35.00
2018-10-11T06:55:00.156Z,33.63
2018-10-11T06:57:28.655Z,33.80
2018-10-11T06:59:57.178Z,32.43
2018-10-11T07:02:25.684Z,31.67
2018-10-11T07:04:54.211Z,33.40
2018-10-11T07:07:22.777Z,32.60
2018-10-11T07:09:51.292Z,33.50
2018-10-11T07:12:19.818Z,36.03
2018-10-11T07:14:48.326Z,32.57
2018-10-11T07:17:16.872Z,31.40
2018-10-11T07:19:45.639Z,30.30
2018-10-11T07:22:14.179Z,31.20
2018-10-11T07:24:42.710Z,32.63
2018-10-11T07:27:11.244Z,33.53
2018-10-11T07:29:39.750Z,31.80
2018-10-11T07:32:08.553Z,32.70
2018-10-11T07:34:37.113Z,30.43
2018-10-11T07:37:05.625Z,31.53
2018-10-11T07:39:34.125Z,29.50
2018-10-11T07:42:02.654Z,35.57
2018-10-11T07:44:31.154Z,27.67
2018-10-11T07:46:59.687Z,30.37
2018-10-11T07:49:28.193Z,27.23
2018-10-11T07:51:56.722Z,29.73
2018-10-11T07:54:30.373Z,26.23
2018-10-11T07:56:58.960Z,30.20
2018-10-11T07:59:27.459Z,27.17
2018-10-11T08:01:56.000Z,27.57
2018-10-11T08:04:24.514Z,24.00
2018-10-11T08:06:53.030Z,28.00
2018-10-11T08:09:21.553Z,27.10
2018-10-11T08:11:50.193Z,27.90
2018-10-11T08:14:18.946Z,32.53
2018-10-11T08:16:48.224Z,37.93
2018-10-11T08:19:16.836Z,28.47
2018-10-11T08:21:45.191Z,26.13
2018-10-11T08:24:13.721Z,26.33
2018-10-11T08:26:42.239Z,25.03
2018-10-11T08:29:10.775Z,27.97
2018-10-11T08:31:46.054Z,31.80
2018-10-11T08:34:14.542Z,27.00
2018-10-11T08:36:43.055Z,30.33
2018-10-11T08:39:12.926Z,31.40
2018-10-11T08:41:41.530Z,24.00
2018-10-11T08:44:11.496Z,25.53
2018-10-11T08:46:40.027Z,26.00
2018-10-11T08:49:08.631Z,27.93
2018-10-11T08:51:37.477Z,23.40
2018-10-11T08:54:11.363Z,26.90
2018-10-11T08:56:39.868Z,27.33
2018-10-11T08:59:08.476Z,24.90
2018-10-11T09:01:36.963Z,28.00
2018-10-11T09:04:05.664Z,21.07
2018-10-11T09:06:34.076Z,25.23
2018-10-11T09:09:02.644Z,28.40
2018-10-11T09:11:31.209Z,25.63
2018-10-11T09:13:59.725Z,24.57
2018-10-11T09:16:28.245Z,32.43
2018-10-11T09:18:56.768Z,26.30
2018-10-11T09:21:25.298Z,21.70
2018-10-11T09:23:53.806Z,27.10
2018-10-11T09:26:22.346Z,23.27
2018-10-11T09:28:50.877Z,24.73
2018-10-11T09:31:19.409Z,26.43
2018-10-11T09:33:47.909Z,24.00
2018-10-11T09:36:16.501Z,24.57
2018-10-11T09:38:45.022Z,23.17
2018-10-11T09:41:13.560Z,21.47
2018-10-11T09:43:42.191Z,20.40
2018-10-11T09:46:10.733Z,25.73
2018-10-11T09:48:39.293Z,25.37
2018-10-11T09:51:08.876Z,25.47
2018-10-11T09:53:37.389Z,23.73
2018-10-11T09:56:06.025Z,24.97
2018-10-11T09:58:34.533Z,24.40
2018-10-11T10:01:08.299Z,23.20
2018-10-11T10:03:37.091Z,23.00
2018-10-11T10:06:05.702Z,23.10
2018-10-11T10:08:34.227Z,23.67
2018-10-11T10:11:02.777Z,25.13
2018-10-11T10:13:31.289Z,26.60
2018-10-11T10:15:59.925Z,22.73
2018-10-11T10:18:28.510Z,30.87
2018-10-11T10:20:57.057Z,25.07
2018-10-11T10:23:25.635Z,24.37
2018-10-11T10:25:54.159Z,26.80
2018-10-11T10:28:22.684Z,22.60
2018-10-11T10:30:52.520Z,24.27
2018-10-11T10:33:22.079Z,23.03
2018-10-11T10:35:50.677Z,29.47
2018-10-11T10:38:19.481Z,21.07
2018-10-11T10:40:47.994Z,26.97
2018-10-11T10:43:16.530Z,23.03
2018-10-11T10:45:45.037Z,23.07
2018-10-11T10:48:13.628Z,22.50
2018-10-11T10:50:42.163Z,21.50
2018-10-11T10:53:10.698Z,23.80
2018-10-11T10:55:39.253Z,23.70
2018-10-11T10:58:07.854Z,22.10
2018-10-11T11:00:36.369Z,21.10
2018-10-11T11:03:04.914Z,20.40
2018-10-11T11:05:33.435Z,19.47
2018-10-11T11:08:01.987Z,21.80
2018-10-11T11:10:30.478Z,17.53
2018-10-11T11:12:59.062Z,24.30
2018-10-11T11:15:27.598Z,20.67
2018-10-11T11:17:56.126Z,20.30
2018-10-11T11:20:24.661Z,18.80
2018-10-11T11:22:53.194Z,19.90
2018-10-11T11:25:21.767Z,19.50
2018-10-11T11:27:50.269Z,19.20
2018-10-11T11:30:18.771Z,20.77
2018-10-11T11:32:47.274Z,20.57
2018-10-11T11:35:15.816Z,20.30
2018-10-11T11:37:44.384Z,19.83
2018-10-11T11:40:12.915Z,21.60
2018-10-11T11:42:41.422Z,19.63
2018-10-11T11:45:09.953Z,19.63
2018-10-11T11:47:38.457Z,21.73
2018-10-11T11:50:07.145Z,17.43
2018-10-11T11:52:35.648Z,19.33
2018-10-11T11:55:04.181Z,19.20
2018-10-11T11:57:32.673Z,18.53
2018-10-11T12:00:01.205Z,17.30
2018-10-11T12:02:29.731Z,19.37
2018-10-11T12:04:58.330Z,15.90
2018-10-11T12:07:26.829Z,16.53
2018-10-11T12:09:55.353Z,19.50
2018-10-11T12:13:04.834Z,17.97
2018-10-11T12:15:34.076Z,17.47
2018-10-11T12:18:03.581Z,18.87
2018-10-11T12:20:33.218Z,17.50
2018-10-11T12:23:03.038Z,17.80
2018-10-11T12:25:31.857Z,16.60
2018-10-11T12:28:00.369Z,18.87
2018-10-11T12:30:29.016Z,18.10
2018-10-11T12:32:57.536Z,21.27
2018-10-11T12:35:26.446Z,16.30
2018-10-11T12:37:54.978Z,16.83
2018-10-11T12:40:24.226Z,15.53
2018-10-11T12:42:52.063Z,18.03
2018-10-11T12:45:20.738Z,17.37
2018-10-11T12:47:49.298Z,16.50
2018-10-11T12:50:17.835Z,15.13
2018-10-11T12:52:46.398Z,15.20
2018-10-11T12:55:14.912Z,16.80
2018-10-11T12:57:43.549Z,15.53
2018-10-11T13:00:13.846Z,16.50
2018-10-11T13:02:42.548Z,15.83
2018-10-11T13:05:11.102Z,18.53
2018-10-11T13:07:40.161Z,17.83
2018-10-11T13:10:08.835Z,21.40
2018-10-11T13:12:37.375Z,16.90
2018-10-11T13:15:06.355Z,21.10
2018-10-11T13:17:40.130Z,16.73
2018-10-11T13:20:04.008Z,18.27
2018-10-11T13:22:32.561Z,17.90
2018-10-11T13:25:01.093Z,15.80
2018-10-11T13:27:29.614Z,17.37
2018-10-11T13:29:58.138Z,15.53
2018-10-11T13:32:26.678Z,18.33
2018-10-11T13:34:55.228Z,22.33
2018-10-11T13:37:23.781Z,15.47
2018-10-11T13:39:56.992Z,16.40
2018-10-11T13:42:20.854Z,29.37
2018-10-11T13:44:49.364Z,16.07
2018-10-11T13:47:17.941Z,15.30
2018-10-11T13:49:46.467Z,20.40
2018-10-11T13:52:17.049Z,14.37
2018-10-11T13:54:43.565Z,15.00
2018-10-11T13:57:12.099Z,15.93
2018-10-11T13:59:40.626Z,16.30
2018-10-11T14:02:09.192Z,19.27
2018-10-11T14:04:37.807Z,17.57
2018-10-11T14:07:06.257Z,22.90
2018-10-11T14:09:34.781Z,18.90
2018-10-11T14:12:03.285Z,15.80
2018-10-11T14:14:31.833Z,16.13
2018-10-11T14:17:00.346Z,13.97
2018-10-11T14:19:28.875Z,16.20
2018-10-11T14:21:58.129Z,14.80
2018-10-11T14:24:27.007Z,15.40
2018-10-11T14:26:55.526Z,18.63
2018-10-11T14:29:24.045Z,16.00
2018-10-11T14:31:52.547Z,17.17
2018-10-11T14:34:21.091Z,16.97
2018-10-11T14:36:49.719Z,15.50
2018-10-11T14:39:18.166Z,15.80
2018-10-11T14:41:46.682Z,16.33
2018-10-11T14:44:15.214Z,17.07
2018-10-11T14:46:43.722Z,23.70
2018-10-11T14:49:12.288Z,17.47
2018-10-11T14:51:44.475Z,20.03
2018-10-11T14:54:09.394Z,15.33
2018-10-11T14:56:37.926Z,15.93
2018-10-11T14:59:06.449Z,18.53
2018-10-11T15:01:34.987Z,19.63
2018-10-11T15:04:03.497Z,19.47
2018-10-11T15:06:32.034Z,20.50
2018-10-11T15:09:00.542Z,20.43
2018-10-11T15:11:29.207Z,16.23
2018-10-11T15:13:57.620Z,21.30
2018-10-11T15:16:26.159Z,21.00
2018-10-11T15:18:54.679Z,15.70
2018-10-11T15:21:23.214Z,16.43
2018-10-11T15:23:51.765Z,17.30
2018-10-11T15:26:20.289Z,16.00
2018-10-11T15:28:48.789Z,17.37
2018-10-11T15:31:17.327Z,16.37
2018-10-11T15:33:45.866Z,17.13
2018-10-11T15:36:14.404Z,21.53
2018-10-11T15:38:42.905Z,14.77
2018-10-11T15:41:11.443Z,15.23
2018-10-11T15:43:39.955Z,15.73
2018-10-11T15:46:08.534Z,17.40
2018-10-11T15:48:37.048Z,18.10
2018-10-11T15:51:05.582Z,15.67
2018-10-11T15:53:34.216Z,19.43
2018-10-11T15:56:02.749Z,16.57
2018-10-11T15:58:31.265Z,19.27
2018-10-11T16:00:59.837Z,21.40
2018-10-11T16:03:28.370Z,19.70
2018-10-11T16:05:56.943Z,20.57
2018-10-11T16:08:25.470Z,17.93
2018-10-11T16:10:54.348Z,18.67
2018-10-11T16:13:24.469Z,19.20
2018-10-11T16:15:53.146Z,18.57
2018-10-11T16:18:25.500Z,17.33
2018-10-11T16:20:54.034Z,18.93
2018-10-11T16:23:22.590Z,18.90
2018-10-11T16:25:51.169Z,17.23
2018-10-11T16:28:19.713Z,15.50
2018-10-11T16:30:48.214Z,15.60
2018-10-11T16:33:16.822Z,15.07
2018-10-11T16:35:45.374Z,17.53
2018-10-11T16:38:13.901Z,16.80
2018-10-11T16:40:42.494Z,14.97
2018-10-11T16:43:11.072Z,17.30
2018-10-11T16:45:39.592Z,16.90
2018-10-11T16:48:08.133Z,16.50
2018-10-11T16:50:36.653Z,23.10
2018-10-11T16:53:05.176Z,20.60
2018-10-11T16:55:33.689Z,19.53
2018-10-11T16:58:02.308Z,19.43
2018-10-11T17:00:30.809Z,22.60
2018-10-11T17:02:59.349Z,19.63
2018-10-11T17:05:27.848Z,19.50
2018-10-11T17:07:56.479Z,19.57
2018-10-11T17:10:24.939Z,20.17
2018-10-11T17:12:53.477Z,21.63
2018-10-11T17:15:22.155Z,19.83
2018-10-11T17:17:50.717Z,23.40
2018-10-11T17:20:19.227Z,17.63
2018-10-11T17:22:47.806Z,33.90
2018-10-11T17:25:16.321Z,20.97
2018-10-11T17:27:44.842Z,23.37
2018-10-11T17:30:13.370Z,30.20
2018-10-11T17:32:41.901Z,23.43
2018-10-11T17:35:10.485Z,30.33
2018-10-11T17:37:38.995Z,22.17
2018-10-11T17:40:07.539Z,26.83
2018-10-11T17:42:36.062Z,27.53
2018-10-11T17:45:04.582Z,24.03
2018-10-11T17:47:33.109Z,23.23
2018-10-11T17:50:01.619Z,23.80
2018-10-11T17:52:30.189Z,24.23
2018-10-11T17:54:59.150Z,24.53
2018-10-11T17:57:27.926Z,25.97
2018-10-11T17:59:56.445Z,30.10
2018-10-11T18:02:24.958Z,24.93
2018-10-11T18:04:54.258Z,24.33
2018-10-11T18:07:22.801Z,25.17
2018-10-11T18:09:51.362Z,20.83
2018-10-11T18:12:19.856Z,25.57
2018-10-11T18:14:48.402Z,27.17
2018-10-11T18:17:16.933Z,28.13
2018-10-11T18:19:45.524Z,23.20
2018-10-11T18:22:14.045Z,27.90
2018-10-11T18:24:42.590Z,33.47
2018-10-11T18:27:11.091Z,32.10
2018-10-11T18:29:41.654Z,25.57
2018-10-11T18:32:10.273Z,24.47
2018-10-11T18:34:39.124Z,22.60
2018-10-11T18:37:07.973Z,26.20
2018-10-11T18:39:36.497Z,29.20
2018-10-11T18:42:05.037Z,27.70
2018-10-11T18:44:33.576Z,30.80
2018-10-11T18:47:02.094Z,29.20
2018-10-11T18:49:30.639Z,27.50
2018-10-11T18:51:59.158Z,26.30
2018-10-11T18:54:27.697Z,27.10
2018-10-11T18:56:56.217Z,37.63
2018-10-11T18:59:24.738Z,32.23
2018-10-11T19:01:53.246Z,24.33
2018-10-11T19:04:21.769Z,26.93
2018-10-11T19:06:50.293Z,33.40
2018-10-11T19:09:18.825Z,32.30
2018-10-11T19:11:47.359Z,25.83
2018-10-11T19:14:15.895Z,29.57
2018-10-11T19:16:44.429Z,26.07
2018-10-11T19:19:12.957Z,27.80
2018-10-11T19:21:41.465Z,31.10
2018-10-11T19:24:10.010Z,26.47
2018-10-11T19:26:38.544Z,30.37
2018-10-11T19:29:07.090Z,29.63
2018-10-11T19:31:35.597Z,30.10
2018-10-11T19:34:04.198Z,26.57
2018-10-11T19:36:32.722Z,24.43
2018-10-11T19:39:01.265Z,27.40
2018-10-11T19:41:29.822Z,31.70
2018-10-11T19:43:58.357Z,37.70
2018-10-11T19:46:26.857Z,28.77
2018-10-11T19:48:55.392Z,37.17
2018-10-11T19:51:23.913Z,28.30
2018-10-11T19:53:52.456Z,35.77
2018-10-11T19:56:20.982Z,27.17
2018-10-11T19:58:49.493Z,28.30
2018-10-11T20:01:18.094Z,32.60
2018-10-11T20:03:46.620Z,27.43
2018-10-11T20:06:15.209Z,31.60
2018-10-11T20:08:43.721Z,29.47
2018-10-11T20:11:12.259Z,33.57
2018-10-11T20:13:40.774Z,31.33
2018-10-11T20:16:09.312Z,32.07
2018-10-11T20:18:38.211Z,31.37
2018-10-11T20:21:07.135Z,32.80
2018-10-11T20:23:35.760Z,33.50
2018-10-11T20:26:04.391Z,28.13
2018-10-11T20:28:32.900Z,31.80
2018-10-11T20:31:01.432Z,31.73
2018-10-11T20:33:29.993Z,27.47
2018-10-11T20:35:58.537Z,27.57
2018-10-11T20:38:27.689Z,28.03
2018-10-11T20:40:56.302Z,32.23
2018-10-11T20:43:24.836Z,35.70
2018-10-11T20:45:53.366Z,31.83
2018-10-11T20:48:21.872Z,31.77
2018-10-11T20:50:50.411Z,27.87
2018-10-11T20:53:18.921Z,31.00
2018-10-11T20:55:47.463Z,31.40
2018-10-11T20:58:15.969Z,32.33
2018-10-11T21:00:44.548Z,30.33
2018-10-11T21:03:13.090Z,28.87
2018-10-11T21:05:41.652Z,32.80
2018-10-11T21:08:10.221Z,34.30
2018-10-11T21:10:38.760Z,29.83
2018-10-11T21:13:07.296Z,30.73
2018-10-11T21:15:35.828Z,38.40
2018-10-11T21:18:04.341Z,39.63
2018-10-11T21:20:32.966Z,37.03
2018-10-11T21:23:01.418Z,36.93
2018-10-11T21:25:29.968Z,37.37
2018-10-11T21:27:58.534Z,36.80
2018-10-11T21:30:27.071Z,29.43
2018-10-11T21:32:55.584Z,33.07
2018-10-11T21:35:24.153Z,34.60
2018-10-11T21:37:52.650Z,33.37
2018-10-11T21:40:21.256Z,36.17
2018-10-11T21:42:49.759Z,30.10
2018-10-11T21:45:18.293Z,32.33
2018-10-11T21:47:46.801Z,38.50
2018-10-11T21:50:15.338Z,34.90
2018-10-11T21:52:43.935Z,30.83
2018-10-11T21:55:12.447Z,28.43
2018-10-11T21:57:40.954Z,28.03
2018-10-11T22:00:09.717Z,28.90
2018-10-11T22:02:38.218Z,34.27
2018-10-11T22:05:06.758Z,33.67
2018-10-11T22:07:35.281Z,34.77
2018-10-11T22:10:03.827Z,34.40
2018-10-11T22:12:32.365Z,36.27
2018-10-11T22:15:01.084Z,34.90
2018-10-11T22:17:29.429Z,34.33
2018-10-11T22:19:57.934Z,36.33
2018-10-11T22:22:26.472Z,35.53
2018-10-11T22:24:54.969Z,33.43
2018-10-11T22:27:23.525Z,40.90
2018-10-11T22:29:52.030Z,28.77
2018-10-11T22:32:20.563Z,33.60
2018-10-11T22:34:49.085Z,33.77
2018-10-11T22:37:17.620Z,34.53
2018-10-11T22:39:46.118Z,38.60
2018-10-11T22:42:14.642Z,34.40
2018-10-11T22:44:43.183Z,34.27
2018-10-11T22:47:11.729Z,33.03
2018-10-11T22:49:40.254Z,35.57
2018-10-11T22:52:08.786Z,33.50
2018-10-11T22:54:37.302Z,32.03
2018-10-11T22:57:05.862Z,31.40
2018-10-11T22:59:34.384Z,31.87
2018-10-11T23:02:02.933Z,34.70
2018-10-11T23:04:31.449Z,31.60
2018-10-11T23:06:59.987Z,31.17
2018-10-11T23:09:28.498Z,30.20
2018-10-11T23:11:57.072Z,30.67
2018-10-11T23:14:25.652Z,38.47
2018-10-11T23:16:54.161Z,36.10
2018-10-11T23:19:22.661Z,35.77
2018-10-11T23:21:51.184Z,30.53
2018-10-11T23:24:19.689Z,39.63
2018-10-11T23:26:48.267Z,36.10
2018-10-11T23:29:16.767Z,40.17
2018-10-11T23:31:45.312Z,34.47
2018-10-11T23:34:13.851Z,35.50
2018-10-11T23:36:42.376Z,32.53
2018-10-11T23:39:12.101Z,37.00
2018-10-11T23:41:41.418Z,35.40
2018-10-11T23:44:10.412Z,34.73
2018-10-11T23:46:39.265Z,43.20
2018-10-11T23:49:07.799Z,34.60
2018-10-11T23:51:36.335Z,34.50
2018-10-11T23:54:04.861Z,34.33
2018-10-11T23:56:33.401Z,39.30
2018-10-11T23:59:01.931Z,33.10
